createdAt,value
2023-08-09T00:09:12.202Z,73
2023-08-09T00:14:12.239Z,73.1
2023-08-09T00:29:12.239Z,73.2
2023-08-09T00:39:12.207Z,73.3
2023-08-09T00:44:12.353Z,73.3
2023-08-09T00:49:12.575Z,73.3
2023-08-09T00:59:12.224Z,73.3
2023-08-09T01:04:12.224Z,73.3
2023-08-09T01:09:12.235Z,73.3
2023-08-09T01:14:12.249Z,73.3
2023-08-09T01:24:12.255Z,73.3
2023-08-09T01:34:12.250Z,73.3
2023-08-09T01:39:12.329Z,73.2
2023-08-09T01:44:12.262Z,73.3
2023-08-09T01:54:12.277Z,73.4
2023-08-09T01:59:12.272Z,73.5
2023-08-09T02:09:12.260Z,73.5
2023-08-09T02:14:12.273Z,73.4
2023-08-09T02:24:12.279Z,73.3
2023-08-09T02:29:12.275Z,73.4
2023-08-09T02:39:12.286Z,73.3
2023-08-09T02:44:12.272Z,73.6
2023-08-09T02:59:12.274Z,73.7
2023-08-09T03:09:12.265Z,74.3
2023-08-09T03:14:12.294Z,74.9
2023-08-09T03:24:12.255Z,74.1
2023-08-09T03:29:12.280Z,74.5
2023-08-09T03:39:12.261Z,74.1
2023-08-09T03:44:12.290Z,73.9
2023-08-09T03:54:12.263Z,73.7
2023-08-09T03:59:12.300Z,73.9
2023-08-09T04:09:12.258Z,73.9
2023-08-09T04:19:12.277Z,74.1
2023-08-09T04:29:12.277Z,73.8
2023-08-09T04:34:12.282Z,73.8
2023-08-09T04:44:12.290Z,73.5
2023-08-09T04:49:12.283Z,73.5
2023-08-09T04:59:12.288Z,73.8
2023-08-09T05:04:12.350Z,74
2023-08-09T05:14:12.305Z,73.7
2023-08-09T05:19:12.284Z,73.5
2023-08-09T05:29:12.304Z,74
2023-08-09T05:34:12.298Z,73.5
2023-08-09T05:44:12.303Z,73.8
2023-08-09T05:49:12.300Z,73.8
2023-08-09T05:59:12.302Z,73.6
2023-08-09T06:04:12.335Z,73.6
2023-08-09T06:09:12.286Z,73.5
2023-08-09T06:19:12.349Z,73.5
2023-08-09T06:29:12.275Z,73.7
2023-08-09T06:49:12.287Z,73.7
2023-08-09T06:59:12.273Z,73.6
2023-08-09T07:04:12.334Z,73.8
2023-08-09T07:14:12.280Z,73.9
2023-08-09T07:19:12.296Z,73.9
2023-08-09T07:29:12.308Z,73.8
2023-08-09T07:39:12.292Z,73.7
2023-08-09T07:49:12.273Z,73.7
2023-08-09T07:54:12.300Z,73.8
2023-08-09T08:04:12.344Z,73.9
2023-08-09T08:09:12.301Z,73.5
2023-08-09T08:19:12.276Z,73.5
2023-08-09T08:24:12.316Z,73.4
2023-08-09T08:34:12.284Z,73.7
2023-08-09T08:39:12.287Z,73.6
2023-08-09T08:44:12.304Z,74.6
2023-08-09T08:54:12.335Z,73.5
2023-08-09T09:04:12.278Z,73.4
2023-08-09T09:09:12.304Z,73.2
2023-08-09T09:24:12.301Z,73
2023-08-09T09:34:12.355Z,73.5
2023-08-09T09:39:12.297Z,73.4
2023-08-09T09:44:12.317Z,73.3
2023-08-09T09:54:14.537Z,73.2
2023-08-09T09:59:12.304Z,73.2
2023-08-09T10:09:12.291Z,73.2
2023-08-09T10:14:12.302Z,73.1
2023-08-09T10:24:12.302Z,72.9
2023-08-09T10:29:12.909Z,73
2023-08-09T10:39:12.292Z,73.1
2023-08-09T10:44:12.302Z,73.1
2023-08-09T10:54:12.308Z,73.1
2023-08-09T10:59:12.308Z,72.8
2023-08-09T11:09:12.369Z,72.8
2023-08-09T11:14:12.317Z,72.8
2023-08-09T11:24:12.278Z,72.7
2023-08-09T11:29:12.303Z,72.9
2023-08-09T11:39:12.282Z,72.7
2023-08-09T11:44:12.313Z,72.6
2023-08-09T11:59:13.130Z,72.5
2023-08-09T12:04:14.878Z,72.5
2023-08-09T12:14:12.310Z,72.5
2023-08-09T12:19:12.344Z,72.6
2023-08-09T12:29:12.343Z,72.4
2023-08-09T12:39:12.302Z,72.3
2023-08-09T12:59:12.340Z,72.5
2023-08-09T13:04:12.389Z,72.4
2023-08-09T13:09:12.325Z,72.3
2023-08-09T13:19:12.337Z,72.3
2023-08-09T13:24:12.338Z,72.4
2023-08-09T13:34:12.320Z,72.4
2023-08-09T13:39:12.355Z,72.3
2023-08-09T13:49:12.336Z,72.4
2023-08-09T13:54:12.384Z,72.4
2023-08-09T14:04:12.378Z,72.3
2023-08-09T14:09:12.354Z,72.3
2023-08-09T14:19:12.341Z,72.3
2023-08-09T14:29:12.325Z,72.3
2023-08-09T14:39:12.341Z,72.3
2023-08-09T14:49:12.323Z,72.3
2023-08-09T14:54:13.389Z,72.2
2023-08-09T15:04:12.344Z,72.3
2023-08-09T15:14:12.328Z,72.4
2023-08-09T15:19:12.574Z,72.3
2023-08-09T15:29:12.321Z,72.3
2023-08-09T15:34:12.335Z,72.3
2023-08-09T15:44:12.320Z,71.9
2023-08-09T15:49:12.339Z,72.1
2023-08-09T15:54:12.346Z,72.1
2023-08-09T16:04:12.334Z,72.1
2023-08-09T16:09:12.337Z,72.2
2023-08-09T16:14:12.332Z,72.1
2023-08-09T16:34:12.327Z,72.2
2023-08-09T16:39:12.342Z,71.9
2023-08-09T16:49:12.353Z,72
2023-08-09T16:54:12.351Z,71.8
2023-08-09T16:59:12.359Z,71.9
2023-08-09T17:09:12.344Z,71.7
2023-08-09T17:19:12.317Z,71.6
2023-08-09T17:34:12.325Z,71.8
2023-08-09T17:39:12.347Z,71.8
2023-08-09T17:54:12.327Z,71.8
2023-08-09T17:59:12.342Z,71.8
2023-08-09T18:09:12.336Z,72
2023-08-09T18:19:12.321Z,71.9
2023-08-09T18:29:12.356Z,71.8
2023-08-09T18:39:12.314Z,71.9
2023-08-09T18:44:12.345Z,72
2023-08-09T18:54:12.338Z,71.8
2023-08-09T18:59:12.361Z,72.1
2023-08-09T19:09:12.347Z,71.9
2023-08-09T19:24:12.331Z,71.9
2023-08-09T19:29:12.365Z,71.6
2023-08-09T19:34:12.342Z,71.2
2023-08-09T19:39:12.364Z,71.5
2023-08-09T19:49:12.449Z,71.4
2023-08-09T19:54:12.353Z,71.6
2023-08-09T20:04:12.342Z,71.7
2023-08-09T20:09:12.352Z,71.9
2023-08-09T20:19:12.343Z,71.7
2023-08-09T20:24:12.368Z,71.8
2023-08-09T20:34:12.344Z,71.9
2023-08-09T20:39:12.348Z,72
2023-08-09T20:49:12.337Z,72
2023-08-09T21:04:12.335Z,72.4
2023-08-09T21:09:12.351Z,72.4
2023-08-09T21:14:12.371Z,72.6
2023-08-09T21:34:12.353Z,72.4
2023-08-09T21:54:12.411Z,72.3
2023-08-09T22:04:12.389Z,72.5
2023-08-09T22:14:12.384Z,72.5
2023-08-09T22:19:12.379Z,72.5
2023-08-09T22:29:12.366Z,72.4
2023-08-09T22:34:12.384Z,72.5
2023-08-09T22:39:12.380Z,72.4
2023-08-09T22:49:12.393Z,72.3
2023-08-09T22:59:12.391Z,72.3
2023-08-09T23:09:12.376Z,72.3
2023-08-09T23:19:12.555Z,72.3
2023-08-09T23:24:12.394Z,72.3
2023-08-09T23:34:12.380Z,72.2
2023-08-09T23:44:12.368Z,72.8
2023-08-09T23:49:12.387Z,72.2
2023-08-09T23:59:12.375Z,72.3
